Terminal Aerodrome Forecast
Issued by NWS Brownsville, TX

Home | Current Version | Previous Version | Text Only | Print | Product List | Glossary On
Versions: 1 2 3 4 5 6 7 8 9 10 11 12 13 14 15 16 17 18 19 20 21 22 23 24 25
000
FTUS44 KBRO 251732
TAFMFE
TAF
KMFE 251732Z 2518/2618 15012KT 6SM HZ SCT025 BKN035
     FM260000 13013KT P6SM SCT030 BKN250
     FM260400 13010KT 5SM BR VCSH BKN015
     FM261000 13007KT 4SM BR BKN012
     FM261500 14015KT P6SM BKN025=

USA.gov is the U.S. government's official web portal to all federal, state and local government web resources and services.